Center Ossipee, New Hampshire
Current Conditions -  °F | °C
As of 9:35 PM on Monday 22 Dec 2014 (Local Time) from KLCI Reporting Station
Overcast Overcast  
Wind Chill: 26°   Ceiling: 1200
Heat Index: 34°   Visibility: 5mi
Dew Point: 28°   Wind: 9mph
Humidity: 81%   Direction: 60°ENE
Pressure: 30.32"   Gusts: NA
Location:  43.75°N, 71.16°W
Report Text: KLCI 230235Z AUTO 06008KT 5SM OVC012 01/M02 A3032 RMK AO1
Loading
Personal Weather Stations






























Interactive Weather Map New forecast layout! Learn more

10-Day Weather Forecast

Advertisements
Track Severe Weather on mobile